Time;durP1;ratioP1;P1;durP2;ratioP2;P2;SDS_P1;SDS_P2;PMS_P1;PMS_P2;Temp;Humidity;BMP_temperature;BMP_pressure;BME280_temperature;BME280_humidity;BME280_pressure;Samples;Min_cycle;Max_cycle;Signal;HPM_P1;HPM_P2
2021/01/14 00:01:13;;;;;;;9.93;4.80;;;8.60;66.90;;;;;;2103600;28;20078;-60
2021/01/14 00:02:35;;;;;;;8.63;4.70;;;8.70;66.20;;;;;;2106368;28;20038;-59
2021/01/14 00:03:56;;;;;;;9.63;5.03;;;8.70;66.20;;;;;;2105170;28;20028;-59
2021/01/14 00:05:17;;;;;;;8.05;4.93;;;8.60;66.20;;;;;;2105692;28;20063;-60
2021/01/14 00:06:38;;;;;;;6.60;4.10;;;8.60;66.10;;;;;;2104687;28;20032;-60
2021/01/14 00:08:00;;;;;;;6.90;4.35;;;8.70;66.20;;;;;;2105530;28;20527;-59
2021/01/14 00:09:21;;;;;;;8.30;4.50;;;8.60;66.10;;;;;;2106728;28;20046;-59
2021/01/14 00:10:42;;;;;;;8.27;4.53;;;8.60;66.00;;;;;;2105095;28;20466;-59
2021/01/14 00:12:03;;;;;;;8.02;4.47;;;8.70;66.00;;;;;;2102905;28;20040;-59
2021/01/14 00:13:24;;;;;;;7.47;3.95;;;8.60;65.90;;;;;;2099421;28;20032;-61
2021/01/14 00:14:45;;;;;;;5.63;3.92;;;8.60;65.90;;;;;;2105976;28;20171;-60
2021/01/14 00:16:06;;;;;;;7.80;4.30;;;8.70;65.90;;;;;;2107268;28;20039;-60
2021/01/14 00:17:27;;;;;;;10.07;4.38;;;8.70;65.90;;;;;;2105675;28;20035;-59
2021/01/14 00:18:48;;;;;;;7.65;4.30;;;8.60;65.90;;;;;;2107858;28;20032;-59
2021/01/14 00:20:12;;;;;;;7.53;4.40;;;8.70;65.90;;;;;;2106566;28;20070;-59
2021/01/14 00:21:43;;;;;;;6.70;3.97;;;8.70;65.90;;;;;;2105381;28;20036;-59
2021/01/14 00:23:04;;;;;;;11.20;4.60;;;8.70;65.70;;;;;;2105767;28;20081;-60
2021/01/14 00:24:25;;;;;;;8.00;3.92;;;8.70;65.80;;;;;;2105564;28;20156;-59
2021/01/14 00:25:45;;;;;;;9.05;4.40;;;8.60;65.70;;;;;;2106530;28;20131;-59
2021/01/14 00:27:06;;;;;;;9.98;4.65;;;8.70;65.70;;;;;;2108293;28;20036;-59
2021/01/14 00:28:27;;;;;;;8.40;4.13;;;8.70;65.70;;;;;;2106804;28;20028;-59
2021/01/14 00:29:48;;;;;;;8.48;3.97;;;8.70;65.60;;;;;;2108223;28;20028;-59
2021/01/14 00:31:09;;;;;;;9.57;3.83;;;8.60;65.40;;;;;;2111306;28;20034;-60
2021/01/14 00:32:30;;;;;;;7.72;4.22;;;8.60;65.30;;;;;;2105734;28;20028;-59
2021/01/14 00:33:51;;;;;;;8.57;3.47;;;8.70;65.40;;;;;;2099390;28;20028;-60
2021/01/14 00:35:13;;;;;;;6.80;4.15;;;8.70;65.40;;;;;;2107912;28;20412;-60
2021/01/14 00:37:50;;;;;;;7.40;3.40;;;8.70;65.30;;;;;;2106337;28;20050;-59
2021/01/14 00:38:16;;;;;;;6.07;3.28;;;8.60;65.20;;;;;;2103402;28;20028;-59
2021/01/14 00:39:37;;;;;;;8.10;3.03;;;8.70;65.30;;;;;;2109217;28;20626;-60
2021/01/14 00:40:58;;;;;;;6.88;3.45;;;8.70;65.10;;;;;;2115655;28;20073;-59
2021/01/14 00:42:19;;;;;;;6.85;3.00;;;8.60;65.00;;;;;;2108727;28;20024;-60
2021/01/14 00:43:40;;;;;;;6.82;3.15;;;8.60;65.00;;;;;;2106072;28;20036;-60
2021/01/14 00:45:01;;;;;;;7.00;2.45;;;8.70;64.90;;;;;;2107591;28;20038;-59
2021/01/14 00:46:22;;;;;;;4.10;2.70;;;8.60;64.60;;;;;;2107394;28;20020;-59
2021/01/14 00:47:42;;;;;;;5.97;2.67;;;8.70;64.50;;;;;;2107437;28;20589;-59
2021/01/14 00:49:03;;;;;;;5.43;2.70;;;8.60;64.30;;;;;;2106532;28;20028;-59
2021/01/14 00:50:26;;;;;;;7.40;2.33;;;8.60;64.10;;;;;;2107217;28;20438;-60
2021/01/14 00:51:46;;;;;;;5.75;1.98;;;8.60;63.90;;;;;;2108016;28;20024;-59
2021/01/14 00:53:07;;;;;;;3.67;1.95;;;8.60;63.80;;;;;;2104027;28;20024;-60
2021/01/14 00:54:28;;;;;;;5.05;2.13;;;8.60;63.50;;;;;;2107553;28;20059;-59
2021/01/14 00:55:49;;;;;;;4.38;2.05;;;8.60;63.40;;;;;;2106830;28;20043;-59
2021/01/14 00:57:10;;;;;;;4.22;2.17;;;8.60;63.40;;;;;;2105661;28;20036;-59
2021/01/14 00:58:33;;;;;;;5.35;2.28;;;8.60;63.30;;;;;;2104916;28;20039;-59
2021/01/14 00:59:54;;;;;;;5.07;1.85;;;8.60;63.10;;;;;;2107571;28;20039;-59
2021/01/14 01:01:15;;;;;;;3.75;2.10;;;8.60;63.10;;;;;;2105043;28;20465;-60
2021/01/14 01:02:45;;;;;;;4.88;2.40;;;8.60;63.00;;;;;;2106333;28;20016;-60
2021/01/14 01:04:06;;;;;;;4.20;2.22;;;8.60;62.70;;;;;;2105525;28;20059;-60
2021/01/14 01:05:27;;;;;;;9.90;2.50;;;8.60;62.80;;;;;;2106930;28;20059;-59
2021/01/14 01:06:48;;;;;;;2.70;1.70;;;8.60;62.70;;;;;;2106785;28;20028;-59
2021/01/14 01:08:09;;;;;;;4.20;2.10;;;8.50;62.60;;;;;;2107295;28;20071;-59
2021/01/14 01:09:31;;;;;;;4.45;1.55;;;8.60;62.50;;;;;;2107768;28;20415;-60
2021/01/14 01:10:52;;;;;;;6.90;2.70;;;8.60;62.50;;;;;;2107213;28;20039;-60
2021/01/14 01:12:13;;;;;;;6.40;2.10;;;8.60;62.60;;;;;;2105318;28;20517;-59
2021/01/14 01:13:34;;;;;;;2.53;1.52;;;8.50;62.60;;;;;;2107004;28;20085;-60
2021/01/14 01:14:54;;;;;;;5.07;1.63;;;8.60;62.70;;;;;;2107446;28;20036;-59
2021/01/14 01:16:16;;;;;;;5.55;2.08;;;8.60;62.60;;;;;;2106851;28;20303;-60
2021/01/14 01:17:37;;;;;;;6.72;2.00;;;8.60;62.50;;;;;;2105766;28;20028;-59
2021/01/14 01:18:58;;;;;;;6.00;1.95;;;8.50;62.50;;;;;;2103367;28;20111;-59
2021/01/14 01:20:19;;;;;;;6.40;2.13;;;8.50;62.50;;;;;;2106313;28;20024;-59
2021/01/14 01:21:43;;;;;;;3.33;1.73;;;8.60;62.60;;;;;;2107015;28;20028;-59
2021/01/14 01:23:04;;;;;;;4.57;1.77;;;8.60;62.50;;;;;;2105766;28;20024;-60
2021/01/14 01:24:25;;;;;;;3.70;1.65;;;8.60;62.50;;;;;;2107109;28;20477;-60
2021/01/14 01:25:45;;;;;;;2.50;1.55;;;8.60;62.50;;;;;;2107347;28;20024;-59
2021/01/14 01:27:06;;;;;;;5.22;1.85;;;8.60;62.60;;;;;;2106433;28;20024;-59
2021/01/14 01:28:27;;;;;;;4.28;1.90;;;8.60;62.50;;;;;;2107105;28;20450;-59
2021/01/14 01:29:48;;;;;;;5.57;2.00;;;8.60;62.50;;;;;;2106025;28;20064;-60
2021/01/14 01:31:10;;;;;;;3.10;1.65;;;8.60;62.50;;;;;;2104914;28;20024;-61
2021/01/14 01:32:31;;;;;;;5.90;1.83;;;8.60;62.50;;;;;;2104453;28;20374;-60
2021/01/14 01:33:52;;;;;;;7.70;2.38;;;8.60;62.50;;;;;;2107704;28;20084;-60
2021/01/14 01:35:13;;;;;;;5.97;1.95;;;8.60;62.50;;;;;;2105941;28;20059;-59
2021/01/14 01:36:34;;;;;;;6.70;1.80;;;8.60;62.40;;;;;;2105403;28;20028;-59
2021/01/14 01:37:55;;;;;;;5.50;2.00;;;8.60;62.30;;;;;;2106222;28;20005;-59
2021/01/14 01:39:16;;;;;;;2.92;1.88;;;8.60;62.30;;;;;;2106439;28;20074;-59
2021/01/14 01:40:36;;;;;;;4.10;1.80;;;8.60;62.20;;;;;;2097856;28;20017;-60
2021/01/14 01:41:58;;;;;;;3.42;1.88;;;8.60;62.00;;;;;;2100537;28;20017;-60
2021/01/14 01:43:18;;;;;;;3.15;1.70;;;8.60;61.90;;;;;;2105043;28;20042;-60
2021/01/14 01:44:39;;;;;;;5.32;2.45;;;8.60;61.90;;;;;;2106017;28;20120;-59
2021/01/14 01:46:01;;;;;;;7.35;2.10;;;8.60;61.70;;;;;;2102882;28;20524;-59
2021/01/14 01:47:32;;;;;;;5.32;2.03;;;8.60;61.60;;;;;;2107540;28;20112;-59
2021/01/14 01:48:55;;;;;;;4.00;1.55;;;8.60;61.60;;;;;;2106292;28;20446;-59
2021/01/14 01:50:19;;;;;;;6.20;1.80;;;8.60;61.40;;;;;;2105141;28;20054;-60
2021/01/14 01:51:42;;;;;;;5.70;1.70;;;8.60;61.10;;;;;;2106761;28;20042;-59
2021/01/14 01:53:03;;;;;;;9.20;1.75;;;8.60;61.10;;;;;;2104738;28;20105;-59
2021/01/14 01:54:25;;;;;;;3.35;1.70;;;8.60;61.00;;;;;;2101458;28;20040;-59
2021/01/14 01:55:46;;;;;;;5.03;1.90;;;8.60;60.70;;;;;;2105782;28;20032;-59
2021/01/14 01:57:08;;;;;;;3.10;1.80;;;8.60;60.70;;;;;;2106456;28;20472;-59
2021/01/14 01:58:33;;;;;;;4.07;1.77;;;8.60;60.50;;;;;;2103710;28;20102;-59
2021/01/14 01:59:54;;;;;;;4.88;1.45;;;8.60;60.10;;;;;;2106439;28;20032;-59
2021/01/14 02:01:15;;;;;;;2.92;1.50;;;8.60;60.10;;;;;;2105860;28;20020;-59
2021/01/14 02:02:35;;;;;;;3.95;1.60;;;8.60;59.90;;;;;;2097803;28;20025;-60
2021/01/14 02:03:56;;;;;;;4.40;1.50;;;8.60;59.80;;;;;;2103712;28;20031;-60
2021/01/14 02:05:17;;;;;;;3.38;1.70;;;8.60;59.60;;;;;;2105811;28;20040;-60
2021/01/14 02:06:49;;;;;;;3.00;1.45;;;8.60;59.30;;;;;;2106109;28;20034;-60
2021/01/14 02:08:33;;;;;;;5.03;1.60;;;8.60;59.00;;;;;;2104736;28;20059;-60
2021/01/14 02:09:56;;;;;;;2.83;1.83;;;8.60;59.00;;;;;;2106601;28;20617;-59
2021/01/14 02:11:34;;;;;;;5.07;1.42;;;8.60;59.20;;;;;;2104097;28;20035;-59
2021/01/14 02:13:20;;;;;;;4.38;1.90;;;8.50;58.70;;;;;;2106415;28;20039;-59
2021/01/14 02:14:44;;;;;;;5.35;1.83;;;8.50;58.60;;;;;;2106244;28;20036;-60
2021/01/14 02:16:06;;;;;;;4.57;2.15;;;8.60;59.20;;;;;;2098007;28;20068;-60
2021/01/14 02:17:28;;;;;;;6.97;2.00;;;8.50;59.20;;;;;;2102940;28;20034;-59
2021/01/14 02:18:54;;;;;;;6.28;1.67;;;8.50;59.40;;;;;;2097858;28;20020;-59
2021/01/14 02:20:15;;;;;;;4.18;1.88;;;8.50;59.00;;;;;;2103431;28;20028;-60
2021/01/14 02:21:38;;;;;;;4.22;1.60;;;8.50;59.10;;;;;;2106272;28;20476;-60
2021/01/14 02:23:16;;;;;;;6.38;1.83;;;8.50;59.10;;;;;;2100155;28;20439;-60
2021/01/14 02:24:41;;;;;;;6.07;1.80;;;8.50;58.80;;;;;;2108181;28;20023;-59
2021/01/14 02:26:26;;;;;;;3.72;1.58;;;8.50;58.90;;;;;;2103102;28;20121;-59
2021/01/14 02:27:48;;;;;;;1.90;1.40;;;8.50;58.50;;;;;;2104584;28;20143;-60
2021/01/14 02:29:10;;;;;;;1.92;1.45;;;8.50;58.90;;;;;;2105902;28;20040;-59
2021/01/14 02:30:31;;;;;;;3.15;1.50;;;8.50;58.90;;;;;;2104236;28;20024;-59
2021/01/14 02:31:52;;;;;;;5.10;1.95;;;8.50;58.80;;;;;;2106293;28;20060;-60
2021/01/14 02:33:13;;;;;;;4.13;1.42;;;8.50;58.80;;;;;;2105689;28;20031;-59
2021/01/14 02:34:33;;;;;;;3.92;1.60;;;8.50;58.70;;;;;;2104581;28;20046;-60
2021/01/14 02:35:54;;;;;;;5.18;1.30;;;8.50;58.70;;;;;;2105702;28;20043;-59
2021/01/14 02:37:15;;;;;;;6.68;2.20;;;8.50;58.70;;;;;;2104349;28;20035;-59
2021/01/14 02:38:36;;;;;;;4.00;1.40;;;8.50;58.60;;;;;;2105488;28;20114;-60
2021/01/14 02:39:57;;;;;;;4.03;1.60;;;8.50;58.60;;;;;;2098080;28;20040;-61
2021/01/14 02:41:18;;;;;;;10.57;2.03;;;8.50;58.60;;;;;;2102750;28;20415;-60
2021/01/14 02:42:39;;;;;;;1.77;1.67;;;8.50;58.50;;;;;;2105231;28;20028;-60
2021/01/14 02:44:00;;;;;;;2.90;2.08;;;8.50;58.50;;;;;;2103997;28;20060;-61
2021/01/14 02:45:21;;;;;;;4.13;1.67;;;8.50;58.50;;;;;;2105081;28;20157;-60
2021/01/14 02:46:43;;;;;;;3.88;1.83;;;8.50;58.50;;;;;;2106458;28;20036;-59
2021/01/14 02:48:05;;;;;;;6.32;1.63;;;8.50;58.60;;;;;;2104845;28;20262;-60
2021/01/14 02:49:33;;;;;;;3.33;1.52;;;8.50;58.50;;;;;;2106589;28;20046;-60
2021/01/14 02:50:57;;;;;;;4.07;1.48;;;8.40;58.20;;;;;;2106109;28;20036;-60
2021/01/14 02:52:19;;;;;;;4.38;1.80;;;8.50;58.40;;;;;;2106470;28;20054;-60
2021/01/14 02:53:41;;;;;;;4.30;1.40;;;8.50;58.40;;;;;;2105353;28;20043;-60
2021/01/14 02:55:04;;;;;;;5.40;1.60;;;8.50;58.40;;;;;;2105890;28;20028;-60
2021/01/14 02:56:26;;;;;;;1.98;1.40;;;8.50;58.40;;;;;;2106005;28;20028;-59
2021/01/14 02:57:48;;;;;;;2.08;1.60;;;8.50;58.50;;;;;;2105609;28;20029;-60
2021/01/14 02:59:09;;;;;;;4.22;1.30;;;8.50;58.40;;;;;;2102419;28;20418;-60
2021/01/14 03:00:30;;;;;;;5.13;1.65;;;8.50;58.40;;;;;;2105622;28;20099;-60
2021/01/14 03:01:51;;;;;;;2.95;1.52;;;8.50;58.50;;;;;;2105735;28;20102;-59
2021/01/14 03:03:12;;;;;;;2.30;1.73;;;8.40;58.40;;;;;;2106658;28;20331;-60
2021/01/14 03:04:33;;;;;;;2.65;1.40;;;8.50;58.40;;;;;;2104961;28;20098;-59
2021/01/14 03:05:54;;;;;;;3.08;1.35;;;8.50;58.40;;;;;;2106437;28;20138;-59
2021/01/14 03:07:15;;;;;;;4.88;1.50;;;8.50;58.50;;;;;;2104608;28;20094;-58
2021/01/14 03:08:36;;;;;;;4.07;2.13;;;8.50;58.50;;;;;;2106078;28;20043;-59
2021/01/14 03:09:57;;;;;;;2.20;1.50;;;8.50;58.50;;;;;;2102495;28;20036;-60
2021/01/14 03:11:32;;;;;;;4.70;1.70;;;8.40;58.50;;;;;;2105624;28;20514;-59
2021/01/14 03:12:54;;;;;;;3.38;1.90;;;8.50;58.30;;;;;;2105155;28;20386;-59
2021/01/14 03:14:15;;;;;;;4.35;1.75;;;8.50;58.50;;;;;;2105313;28;20040;-59
2021/01/14 03:15:36;;;;;;;4.97;1.85;;;8.40;58.40;;;;;;2105151;28;20111;-59
2021/01/14 03:16:57;;;;;;;2.97;1.52;;;8.40;58.30;;;;;;2105783;28;20031;-60
2021/01/14 03:18:18;;;;;;;3.38;1.80;;;8.40;58.30;;;;;;2105473;28;20081;-59
2021/01/14 03:19:39;;;;;;;6.43;1.75;;;8.40;58.30;;;;;;2106172;28;20454;-59
2021/01/14 03:21:01;;;;;;;6.82;2.20;;;8.40;58.20;;;;;;2103707;28;20048;-59
2021/01/14 03:22:22;;;;;;;4.53;1.63;;;8.40;58.20;;;;;;2106429;28;20030;-59
2021/01/14 03:23:42;;;;;;;4.35;1.80;;;8.40;58.20;;;;;;2105286;28;20040;-59
2021/01/14 03:25:06;;;;;;;6.28;1.63;;;8.40;58.20;;;;;;2101968;28;20028;-60
2021/01/14 03:26:27;;;;;;;3.63;2.10;;;8.40;58.20;;;;;;2105715;28;20443;-61
2021/01/14 03:27:48;;;;;;;3.83;1.77;;;8.40;58.20;;;;;;2105473;28;20048;-60
2021/01/14 03:29:09;;;;;;;4.80;1.70;;;8.40;58.10;;;;;;2106134;28;20020;-60
2021/01/14 03:30:30;;;;;;;2.85;1.90;;;8.40;58.00;;;;;;2104051;28;20035;-59
2021/01/14 03:31:50;;;;;;;4.97;1.90;;;8.40;57.90;;;;;;2105568;28;20089;-60
2021/01/14 03:33:11;;;;;;;5.13;1.88;;;8.40;57.80;;;;;;2097021;28;20025;-60
2021/01/14 03:34:32;;;;;;;4.85;2.15;;;8.40;57.90;;;;;;2101600;28;20094;-61
2021/01/14 03:35:54;;;;;;;3.95;1.65;;;8.40;57.90;;;;;;2106655;28;20336;-61
2021/01/14 03:37:15;;;;;;;7.43;2.15;;;8.40;57.90;;;;;;2105934;28;20048;-60
2021/01/14 03:38:36;;;;;;;4.00;1.65;;;8.40;57.80;;;;;;2104490;28;20020;-60
2021/01/14 03:39:57;;;;;;;2.58;1.48;;;8.40;57.80;;;;;;2105893;28;20020;-61
2021/01/14 03:41:19;;;;;;;4.40;1.90;;;8.40;57.90;;;;;;2104838;28;20032;-60
2021/01/14 03:42:40;;;;;;;5.18;2.10;;;8.40;58.00;;;;;;2105353;28;20032;-61
2021/01/14 03:44:01;;;;;;;6.47;1.55;;;8.40;58.10;;;;;;2103816;28;20068;-60
2021/01/14 03:45:22;;;;;;;6.32;1.80;;;8.40;58.20;;;;;;2105252;28;20417;-60
2021/01/14 03:46:48;;;;;;;6.10;1.80;;;8.40;58.20;;;;;;2103867;28;20063;-60
2021/01/14 03:48:09;;;;;;;3.15;1.55;;;8.30;57.90;;;;;;2105138;28;20402;-60
2021/01/14 03:49:30;;;;;;;3.25;1.60;;;8.30;58.00;;;;;;2105004;28;20036;-60
2021/01/14 03:50:51;;;;;;;4.45;1.70;;;8.30;58.00;;;;;;2106267;28;20023;-61
2021/01/14 03:52:12;;;;;;;5.45;1.90;;;8.40;58.20;;;;;;2103013;28;20383;-61
2021/01/14 03:53:33;;;;;;;3.35;1.63;;;8.30;58.20;;;;;;2104503;28;20588;-61
2021/01/14 03:54:53;;;;;;;3.33;1.77;;;8.40;58.30;;;;;;2105579;28;20020;-60
2021/01/14 03:56:15;;;;;;;4.25;1.80;;;8.30;58.20;;;;;;2103279;28;20038;-60
2021/01/14 03:57:36;;;;;;;2.15;1.45;;;8.30;58.30;;;;;;2104206;28;20051;-60
2021/01/14 03:58:57;;;;;;;4.43;1.98;;;8.40;58.50;;;;;;2106368;28;20032;-60
2021/01/14 04:00:18;;;;;;;5.95;1.90;;;8.30;58.40;;;;;;2103981;28;20466;-60
2021/01/14 04:01:39;;;;;;;3.22;2.22;;;8.30;58.10;;;;;;2105244;28;20031;-60
2021/01/14 04:03:00;;;;;;;5.38;1.50;;;8.30;58.10;;;;;;2103633;28;20028;-60
2021/01/14 04:04:21;;;;;;;5.80;1.88;;;8.30;58.10;;;;;;2103664;28;20043;-61
2021/01/14 04:05:42;;;;;;;4.03;1.63;;;8.30;58.10;;;;;;2105371;28;20103;-61
2021/01/14 04:07:12;;;;;;;5.47;1.80;;;8.30;58.20;;;;;;2104016;28;20028;-61
2021/01/14 04:08:33;;;;;;;4.03;1.73;;;8.30;58.20;;;;;;2106869;28;20099;-60
2021/01/14 04:09:54;;;;;;;4.72;1.90;;;8.30;58.20;;;;;;2104775;28;20028;-61
2021/01/14 04:11:15;;;;;;;1.70;1.60;;;8.30;58.20;;;;;;2103459;28;20055;-61
2021/01/14 04:12:36;;;;;;;5.05;1.80;;;8.30;58.20;;;;;;2106666;28;20032;-60
2021/01/14 04:13:57;;;;;;;4.80;1.58;;;8.30;58.20;;;;;;2106285;28;20046;-60
2021/01/14 04:15:18;;;;;;;4.60;1.85;;;8.30;58.10;;;;;;2102675;28;20028;-60
2021/01/14 04:16:39;;;;;;;2.88;1.70;;;8.30;58.10;;;;;;2105264;28;20028;-60
2021/01/14 04:18:00;;;;;;;4.93;1.75;;;8.30;58.20;;;;;;2103464;28;20056;-61
2021/01/14 04:19:21;;;;;;;3.58;1.73;;;8.30;58.30;;;;;;2104963;28;20158;-60
2021/01/14 04:20:42;;;;;;;4.63;1.92;;;8.30;58.30;;;;;;2104470;28;20446;-61
2021/01/14 04:22:02;;;;;;;3.97;1.50;;;8.30;58.30;;;;;;2101598;28;20028;-60
2021/01/14 04:23:23;;;;;;;4.35;1.70;;;8.30;58.40;;;;;;2104152;28;20047;-60
2021/01/14 04:24:44;;;;;;;5.75;1.50;;;8.30;58.40;;;;;;2105928;28;20024;-60
2021/01/14 04:26:05;;;;;;;5.25;1.70;;;8.30;58.40;;;;;;2102575;28;20032;-60
2021/01/14 04:27:26;;;;;;;2.63;1.50;;;8.30;58.50;;;;;;2104214;28;20028;-60
2021/01/14 04:28:47;;;;;;;4.20;1.73;;;8.30;58.50;;;;;;2105464;28;20107;-60
2021/01/14 04:30:08;;;;;;;3.35;1.65;;;8.30;58.50;;;;;;2104866;28;20040;-60
2021/01/14 04:31:29;;;;;;;2.97;1.73;;;8.30;58.50;;;;;;2102313;28;20178;-60
2021/01/14 04:32:57;;;;;;;3.42;1.58;;;8.20;58.60;;;;;;2104878;28;20038;-61
2021/01/14 04:34:18;;;;;;;4.82;1.75;;;8.30;58.60;;;;;;2105599;28;20098;-60
2021/01/14 04:35:47;;;;;;;4.50;1.60;;;8.30;58.70;;;;;;2105100;28;20028;-60
2021/01/14 04:37:08;;;;;;;3.67;1.70;;;8.30;58.70;;;;;;2105419;28;20513;-60
2021/01/14 04:38:29;;;;;;;3.72;1.70;;;8.30;58.70;;;;;;2105622;28;20527;-60
2021/01/14 04:39:50;;;;;;;4.32;1.52;;;8.20;58.70;;;;;;2104013;28;20016;-60
2021/01/14 04:41:11;;;;;;;5.78;2.45;;;8.30;58.70;;;;;;2104423;28;20496;-60
2021/01/14 04:42:39;;;;;;;3.22;1.75;;;8.30;58.70;;;;;;2104994;28;20024;-60
2021/01/14 04:44:01;;;;;;;7.20;1.80;;;8.20;58.50;;;;;;2103403;28;20047;-60
2021/01/14 04:45:22;;;;;;;5.90;1.70;;;8.20;58.50;;;;;;2104060;28;20359;-61
2021/01/14 04:46:49;;;;;;;3.03;1.88;;;8.30;58.50;;;;;;2105616;28;20481;-60
2021/01/14 04:48:10;;;;;;;5.57;1.73;;;8.20;58.50;;;;;;2103140;28;20020;-60
2021/01/14 04:49:31;;;;;;;5.60;1.65;;;8.20;58.50;;;;;;2104143;28;20024;-60
2021/01/14 04:50:54;;;;;;;4.18;1.92;;;8.20;58.60;;;;;;2104963;28;20032;-60
2021/01/14 04:52:17;;;;;;;4.07;1.80;;;8.20;58.50;;;;;;2105572;28;20017;-60
2021/01/14 04:53:43;;;;;;;5.35;1.90;;;8.20;58.30;;;;;;2105298;28;20024;-60
2021/01/14 04:55:13;;;;;;;4.28;1.90;;;8.30;58.20;;;;;;2105381;28;20044;-60
2021/01/14 04:56:37;;;;;;;;;;;8.20;58.00;;;;;;2104973;28;20032;-60
2021/01/14 04:58:01;;;;;;;4.35;2.05;;;8.30;58.00;;;;;;2105540;28;19904;-60
2021/01/14 04:59:24;;;;;;;3.70;1.88;;;8.20;58.20;;;;;;2106148;28;20040;-60
2021/01/14 05:00:50;;;;;;;4.50;1.80;;;8.30;58.20;;;;;;2106912;28;20030;-60
2021/01/14 05:02:20;;;;;;;3.63;1.85;;;8.20;58.10;;;;;;2106640;28;20020;-60
2021/01/14 05:03:44;;;;;;;6.63;2.03;;;8.20;58.10;;;;;;2106769;28;20488;-60
2021/01/14 05:05:12;;;;;;;4.22;1.73;;;8.20;58.20;;;;;;2106951;28;20027;-60
2021/01/14 05:06:35;;;;;;;6.72;2.03;;;8.20;58.20;;;;;;2107652;28;20521;-60
2021/01/14 05:08:08;;;;;;;4.05;1.65;;;8.20;58.30;;;;;;2107177;28;20021;-60
2021/01/14 05:09:37;;;;;;;5.15;1.80;;;8.20;58.20;;;;;;2106065;28;20024;-60
2021/01/14 05:10:58;;;;;;;14.32;2.60;;;8.20;58.30;;;;;;2107052;28;20030;-60
2021/01/14 05:12:19;;;;;;;3.25;2.10;;;8.20;58.30;;;;;;2106937;28;20027;-60
2021/01/14 05:13:41;;;;;;;4.57;1.85;;;8.20;58.30;;;;;;2105365;28;20026;-60
2021/01/14 05:15:03;;;;;;;3.70;2.50;;;8.20;58.30;;;;;;2103600;28;20102;-60
2021/01/14 05:16:24;;;;;;;7.13;2.45;;;8.20;58.30;;;;;;2104711;28;20054;-60
2021/01/14 05:17:46;;;;;;;3.80;1.80;;;8.20;58.30;;;;;;2107103;28;20039;-60
2021/01/14 05:19:07;;;;;;;4.10;1.90;;;8.20;58.20;;;;;;2103393;28;20036;-60
2021/01/14 05:20:28;;;;;;;4.90;2.08;;;8.20;58.30;;;;;;2107549;28;20108;-60
2021/01/14 05:21:49;;;;;;;4.78;1.60;;;8.20;58.30;;;;;;2106259;28;20028;-60
2021/01/14 05:23:11;;;;;;;5.15;2.00;;;8.20;58.20;;;;;;2106085;28;20044;-60
2021/01/14 05:24:32;;;;;;;5.25;1.67;;;8.10;58.20;;;;;;2102868;28;20416;-60
2021/01/14 05:25:53;;;;;;;4.38;1.85;;;8.20;58.20;;;;;;2106329;28;20036;-60
2021/01/14 05:27:21;;;;;;;4.03;1.65;;;8.20;58.20;;;;;;2105337;28;20021;-60
2021/01/14 05:28:42;;;;;;;3.50;1.80;;;8.10;58.00;;;;;;2106585;28;20663;-60
2021/01/14 05:30:07;;;;;;;1.52;1.40;;;8.10;58.20;;;;;;2104019;28;20040;-60
2021/01/14 05:31:34;;;;;;;4.15;1.98;;;8.20;58.20;;;;;;2104659;28;20032;-60
2021/01/14 05:32:54;;;;;;;4.10;1.85;;;8.10;58.10;;;;;;2104706;28;20024;-60
2021/01/14 05:34:17;;;;;;;4.18;1.60;;;8.10;58.20;;;;;;2106583;28;20032;-60
2021/01/14 05:35:47;;;;;;;4.30;1.63;;;8.10;58.20;;;;;;2097833;28;20024;-60
2021/01/14 05:37:12;;;;;;;;;;;8.10;58.20;;;;;;2102553;28;20028;-61
2021/01/14 05:38:33;;;;;;;6.60;2.10;;;8.10;58.00;;;;;;2104160;28;19955;-61
2021/01/14 05:39:54;;;;;;;3.95;1.92;;;8.10;58.20;;;;;;2105523;28;20052;-60
2021/01/14 05:41:18;;;;;;;2.72;1.92;;;8.10;58.10;;;;;;2104917;28;20020;-60
2021/01/14 05:42:40;;;;;;;5.82;1.88;;;8.10;58.10;;;;;;2105141;28;20049;-60
2021/01/14 05:44:03;;;;;;;2.50;1.60;;;8.10;58.10;;;;;;2105201;28;20052;-60
2021/01/14 05:45:24;;;;;;;3.55;1.70;;;8.10;58.00;;;;;;2107201;28;20536;-60
2021/01/14 05:46:45;;;;;;;4.57;2.08;;;8.00;58.00;;;;;;2105558;28;20039;-60
2021/01/14 05:48:11;;;;;;;4.13;2.10;;;8.10;58.00;;;;;;2102940;28;20067;-60
2021/01/14 05:49:32;;;;;;;3.33;1.98;;;8.10;58.00;;;;;;2104580;28;20358;-60
2021/01/14 05:50:53;;;;;;;4.90;2.10;;;8.00;58.10;;;;;;2105032;28;20036;-61
2021/01/14 05:52:14;;;;;;;2.90;1.75;;;8.10;58.10;;;;;;2106331;28;20028;-60
2021/01/14 05:53:51;;;;;;;4.72;2.17;;;8.00;58.10;;;;;;2105408;28;20090;-61
2021/01/14 05:55:23;;;;;;;4.57;2.17;;;8.00;58.20;;;;;;2106077;28;20086;-61
2021/01/14 05:56:54;;;;;;;3.13;2.00;;;8.10;58.20;;;;;;2107272;28;20039;-61
2021/01/14 05:58:17;;;;;;;2.85;1.70;;;8.00;58.10;;;;;;2103999;28;20057;-61
2021/01/14 05:59:40;;;;;;;5.88;1.90;;;8.10;58.20;;;;;;2105382;28;20462;-60
2021/01/14 06:01:03;;;;;;;2.33;2.13;;;8.00;58.20;;;;;;2106423;28;20486;-61
2021/01/14 06:02:32;;;;;;;3.20;1.73;;;8.00;58.20;;;;;;2106683;28;20493;-61
2021/01/14 06:03:53;;;;;;;3.70;1.77;;;8.00;58.20;;;;;;2105304;28;20047;-61
2021/01/14 06:05:27;;;;;;;4.00;1.83;;;8.00;58.30;;;;;;2105425;28;20074;-61
2021/01/14 06:06:51;;;;;;;1.40;1.30;;;8.00;58.10;;;;;;2105745;28;20027;-60
2021/01/14 06:08:22;;;;;;;5.13;1.75;;;8.00;58.10;;;;;;2105239;28;20055;-60
2021/01/14 06:09:45;;;;;;;3.30;1.65;;;8.00;58.10;;;;;;2106645;28;20028;-60
2021/01/14 06:11:23;;;;;;;5.75;1.80;;;8.00;58.20;;;;;;2103676;28;20027;-61
2021/01/14 06:12:49;;;;;;;7.30;2.25;;;8.00;58.10;;;;;;2105069;28;20688;-60
2021/01/14 06:14:32;;;;;;;6.00;2.15;;;8.00;58.10;;;;;;2106680;28;20051;-60
2021/01/14 06:15:59;;;;;;;2.90;1.77;;;8.00;58.00;;;;;;2106165;28;20050;-60
2021/01/14 06:17:31;;;;;;;4.57;2.00;;;8.00;58.10;;;;;;2106018;28;20090;-60
2021/01/14 06:19:07;;;;;;;2.58;1.85;;;8.00;58.20;;;;;;2105433;28;20024;-61
2021/01/14 06:20:28;;;;;;;5.18;1.85;;;8.00;58.10;;;;;;2104966;28;20261;-60
2021/01/14 06:21:49;;;;;;;5.95;1.95;;;8.10;58.30;;;;;;2106798;28;20028;-60
2021/01/14 06:23:10;;;;;;;6.35;2.10;;;8.00;58.10;;;;;;2107101;28;20072;-60
2021/01/14 06:24:36;;;;;;;3.92;2.45;;;8.00;58.20;;;;;;2105459;28;20035;-60
2021/01/14 06:25:57;;;;;;;4.50;1.88;;;8.00;58.30;;;;;;2106954;28;20031;-61
2021/01/14 06:27:18;;;;;;;3.83;2.20;;;8.10;58.30;;;;;;2103753;28;20039;-60
2021/01/14 06:28:39;;;;;;;3.65;1.60;;;8.00;58.30;;;;;;2104645;28;20024;-60
2021/01/14 06:30:05;;;;;;;2.00;1.60;;;8.00;58.30;;;;;;2102762;28;20038;-60
2021/01/14 06:31:26;;;;;;;2.53;1.90;;;8.00;58.30;;;;;;2106375;28;20094;-60
2021/01/14 06:33:00;;;;;;;4.30;2.08;;;8.00;58.30;;;;;;2105322;28;20143;-60
2021/01/14 06:34:22;;;;;;;4.65;1.90;;;8.00;58.20;;;;;;2107459;28;20028;-60
2021/01/14 06:35:44;;;;;;;3.95;2.20;;;8.00;58.30;;;;;;2104188;28;20035;-60
2021/01/14 06:37:11;;;;;;;5.15;1.90;;;8.00;58.30;;;;;;2102564;28;20059;-60
2021/01/14 06:38:47;;;;;;;4.88;1.85;;;8.00;58.30;;;;;;2105086;28;20017;-60
2021/01/14 06:40:08;;;;;;;3.35;1.63;;;8.00;58.20;;;;;;2106093;28;20119;-60
2021/01/14 06:41:38;;;;;;;2.70;1.75;;;8.00;58.30;;;;;;2105425;28;20028;-60
2021/01/14 06:43:07;;;;;;;4.40;2.15;;;8.00;58.20;;;;;;2104891;28;20029;-60
2021/01/14 06:44:35;;;;;;;6.35;2.10;;;8.10;58.30;;;;;;2107746;28;20147;-60
2021/01/14 06:46:05;;;;;;;3.70;1.85;;;8.00;58.20;;;;;;2112754;28;20045;-61
2021/01/14 06:47:45;;;;;;;3.55;2.00;;;8.00;58.20;;;;;;2108786;28;20098;-60
2021/01/14 06:49:14;;;;;;;3.20;2.20;;;8.00;58.30;;;;;;2099713;28;20028;-60
2021/01/14 06:50:42;;;;;;;5.75;2.00;;;8.00;58.20;;;;;;2104267;28;20451;-60
2021/01/14 06:52:14;;;;;;;3.95;2.03;;;8.00;58.20;;;;;;2103830;28;20036;-60
2021/01/14 06:53:38;;;;;;;10.15;2.65;;;8.00;58.20;;;;;;2105670;28;20043;-60
2021/01/14 06:54:59;;;;;;;4.03;1.90;;;8.00;58.20;;;;;;2106331;28;20088;-60
2021/01/14 06:56:24;;;;;;;5.95;2.10;;;8.00;58.20;;;;;;2106584;28;20101;-60
2021/01/14 06:58:09;;;;;;;6.47;1.95;;;8.00;58.70;;;;;;2105075;28;20026;-60
2021/01/14 06:59:35;;;;;;;7.15;1.90;;;8.00;58.10;;;;;;2104367;28;20016;-60
2021/01/14 07:01:01;;;;;;;5.32;2.17;;;8.00;58.30;;;;;;2105623;28;20101;-60
2021/01/14 07:02:47;;;;;;;5.28;1.85;;;8.00;58.20;;;;;;2105931;28;20031;-60
2021/01/14 07:04:27;;;;;;;5.82;2.17;;;8.00;58.30;;;;;;2103875;28;20020;-60
2021/01/14 07:05:55;;;;;;;;;;;8.00;58.20;;;;;;2105152;28;20505;-60
2021/01/14 07:07:27;;;;;;;4.82;2.08;;;8.00;58.20;;;;;;2104563;28;19966;-60
2021/01/14 07:09:25;;;;;;;2.85;1.83;;;8.00;58.20;;;;;;2104208;28;20032;-60
2021/01/14 07:11:00;;;;;;;5.55;2.10;;;8.00;58.50;;;;;;2079973;28;20033;-60
2021/01/14 07:12:27;;;;;;;4.25;2.33;;;8.00;58.00;;;;;;2080677;28;20113;-60
2021/01/14 07:13:50;;;;;;;2.83;2.03;;;8.00;58.10;;;;;;2105356;28;20020;-60
2021/01/14 07:15:12;;;;;;;4.45;2.13;;;8.00;58.20;;;;;;2103593;28;20086;-60
2021/01/14 07:16:40;;;;;;;7.90;2.55;;;8.00;58.20;;;;;;2104337;28;20032;-60
2021/01/14 07:18:03;;;;;;;5.10;2.35;;;8.00;58.20;;;;;;2104874;28;20051;-60
2021/01/14 07:19:23;;;;;;;5.65;2.50;;;8.00;58.30;;;;;;2106174;28;20024;-60
2021/01/14 07:20:44;;;;;;;5.40;2.50;;;8.00;58.30;;;;;;2105317;28;20036;-60
2021/01/14 07:22:05;;;;;;;6.60;2.92;;;8.00;58.30;;;;;;2104828;28;20028;-60